Anderson, Nebraska
Current Conditions -  °F | °C
As of 8:15 PM on Friday 19 Dec 2014 (Local Time) from KHDE Reporting Station
Clear Clear  
Wind Chill: 23°   Ceiling: Unl
Heat Index: 29°   Visibility: 10mi
Dew Point: 27°   Wind: 6mph
Humidity: 90%   Direction: 170°S
Pressure: 30.02"   Gusts: NA
Location:  40.5251°N, 99.2414°W
Report Text: KHDE 200215Z AUTO 17005KT 10SM CLR M02/M03 A3002 RMK AO2 T10161030
Loading
Personal Weather Stations






























Interactive Weather Map New forecast layout! Learn more

10-Day Weather Forecast

Advertisements
Track Severe Weather on mobile